Sept-Iles, Canada
Current Conditions -  °F | °C
As of 9:00 AM on Sunday 23 Nov 2014 (Local Time) from CYZV Reporting Station
Few Clouds Few Clouds  
Wind Chill: 15°   Ceiling: Unl
Heat Index: 25°   Visibility: 30mi
Dew Point: 10°   Wind: 10mph
Humidity: 54%   Direction: 300°WNW
Pressure: 29.85"   Gusts: 20mph
Location:  50.21°N, 66.39°W
Report Text: CYZV 231400Z 30009G17KT 30SM FEW040 M04/M12 A2985 RMK CF1 PRESRR SLP113
Loading
Personal Weather Stations






























Interactive Weather Map New forecast layout! Learn more

10-Day Weather Forecast

Advertisements
Track Severe Weather on mobile